Etusivu
METAR-TAF:

METAR-TAF

Lentoasemat :

Stuttgart Municipal Airport

Stuttgart, Arkansas, Yhdysvallat

Leveyspiiri: 34-36N, Pituuspiiri: 091-34W, korkeus merenpinnasta: 68 m

Tämänhetkinen sää

Tämä raportti tehtiin 3 minuuttia sitten, kello 16.37 UTC
Tuuli 15 kn pohjoisesta/koillisesta
Lämpötila 11°C
Kosteus 100%
Ilmanpaine 1011 hPa
Näkyvyys: 6.4 km
Pilvistä 300 ft:n korkeudessa
heikkoa sadetta, utua

METAR: KSGT 141637Z AUTO 03015KT 4SM -RA BR OVC003 11/11 A2984 RMK AO2 LTG DSNT ALQDS TSB04E19 P0004

Aika: 10:40 (16:40 UTC)


TAF: puuttuu

Säähavainnot ja -ennusteet yli 4000 lentoasemalta (METAR- ja TAF-raportit).

Käytössä olevat sääasemat on merkitty karttaan keltaisilla ja punaisilla pisteillä.

Aseta hiiri pisteen päälle nähdäksesi sääaseman nimen.

Klikkaa sitten nähdäksesi säähavainnot ja -ennusteet.

Kartan vaihtaminen: klikkaa mustalla rastilla varustettuja vihreitä pisteitä, niin voit zoomata sisään; viivalla varustettua vihreää pistettä, niin voit zoomata ulos tai vihreitä nuolia, niin pääset viereisille kartoille.


METAR-TAF: